NCAR-RAP Real-Time Weather Data

Output produced by METARs form (23 June 2018  19:38 UTC)
found at http://weather.rap.ucar.edu/surface/
 
RJNW 231000Z 26007KT 9999 FEW030 BKN140 BKN/// 20/16 Q1004
RJNW 230900Z 23003KT 9999 FEW030 BKN140 BKN/// 21/15 Q1004
RJNW 230800Z VRB02KT 9999 FEW030 SCT040 BKN150 22/15 Q1003
RJNW 230700Z VRB02KT 9999 FEW030 SCT130 BKN150 22/15 Q1003
RJNW 230600Z 17003KT 140V200 9999 FEW030 SCT130 BKN150 23/16 Q1003
RJNW 230500Z VRB02KT CAVOK 24/16 Q1003
RJNW 230400Z 06003KT 020V090 CAVOK 26/12 Q1003
RJNW 230300Z 09007KT CAVOK 26/14 Q1004
RJNW 230200Z 10004KT 050V140 CAVOK 26/13 Q1005
RJNW 230100Z 16004KT 100V200 CAVOK 23/14 Q1006
RJNW 230000Z 12003KT 080V140 CAVOK 22/14 Q1006
RJNW 222300Z 06005KT CAVOK 21/16 Q1007
RJNW 221000Z 24003KT 9999 FEW030 BKN/// 20/12 Q1009
RJNW 220900Z 24007KT 9999 FEW030 SCT/// 23/11 Q1009
RJNW 220800Z 24007KT CAVOK 25/10 Q1009
RJNW 220700Z 23009KT 9999 FEW030 25/12 Q1009
RJNW 220600Z 23008KT 200V280 9999 FEW030 SCT/// 25/12 Q1009
RJNW 220500Z 24009KT 200V270 9999 FEW030 SCT/// 25/11 Q1009
RJNW 220400Z 25008KT 210V280 9999 FEW030 SCT/// 25/12 Q1009
RJNW 220300Z 24010KT 200V290 9999 FEW030 24/13 Q1010
RJNW 220200Z 24011KT 220V280 9999 FEW030 SCT/// 24/12 Q1010
RJNW 220100Z 23009KT 190V260 9999 FEW020 SCT/// 24/13 Q1010
RJNW 220000Z 23009KT 9999 FEW010 22/12 Q1010
RJNW 212300Z 23006KT 9999 FEW010 20/16 Q1010
RJNW 211000Z 27005KT 240V300 9999 FEW010 18/16 Q1006
RJNW 210900Z 27010KT 9999 FEW010 20/15 Q1005
RJNW 210800Z 26011KT 240V300 9999 FEW010 SCT020 22/18 Q1004